Startpagina
METAR-TAF:

METAR-TAF

Vliegvelden :

Gəncə, Azerbeidzjan

breedte: 40-44N, lengte: 046-24E, hoogte: 330 m

Actueel weer

Dit bericht is 37 minuten geleden gemaakt, om 03:00 UTC
Wind 6 kt uit het zuidzuidwesten
Temperatuur 0°C
Vochtigheid 74%
Druk 1024 hPa
Zicht 10 km of meer
Weinig wolken op 10000 ft

METAR: UBBG 190300Z 20006KT 9999 FEW100 M00/M04 Q1024 R30/CLRD// NOSIG

Tijdstip: 07:37 (03:37 UTC)

Verwachting

Dit bericht is 4 uur en het 37 minuten geleden gemaakt, om 23:00 UTC
Verwachting geldig van 19 om 00 UTC tot 19 om 24 UTC
Wind 8 kt uit het westzuidwesten
Zicht 10 km of meer
Weinig wolken op 5000 ft
Verspreide wolken op 10000 ft
Tijdelijke
van 19 om 04 UTC tot 19 om 08 UTC
Wind 4 kt uit variabele richting
Wijzigt naar
van 19 om 10 UTC tot 19 om 12 UTC
Wind 8 kt uit het oosten

TAF: UBBG 182300Z 1900/1924 24008KT 9999 FEW050 SCT100 TX11/1912Z TNM01/1903Z TEMPO 1904/1908 VRB04KT BECMG 1910/1912 08008KT

Waarnemingen en weersverwachtingen van meer dan 4000 vliegvelden (METAR en TAF).

De beschikbare stations zijn de gele en rode punten op de kaart.

Ga met uw muis naar het station om de naam te zien.

Klik dan om waarnemingen en weersverwachtingen te zien.

kaart wijzigen: klik op de groene knoppen met een zwart kruis om in te zoomen, op de groene knop met een streepje om uit te zoomen of op de groene pijlen voor aangrenzende kaarten.


METAR-TAF: